RoSS Sea — WDE3122 — position and weather

sailwx.info

Track history (hours):
 
Tides and Currents Weather Stations Pressure Air Temp Water Temp Dewpoint Dewpoint Depression Visibility Wind Speed Wind Dir Waves Ship Positions

RoSS Sea

More information available from US FCC via Universal Licensing System and Coast Guard Vessel Documentation Center.

Last reported at 2014-Jul-19 07:15 UTC. Time now 2014-Jul-24 15:30 UTC.
Position N 30°08' W 090°56'.

Length 30 m; draft 5 m.

Type: Tow > 200 m length. MMSI: 367334360.

Date/timePositionNaut miles runAvg speedWind from/ knotsBaromVisibWave heightAir tempDewpointWater temp
2014-Jul-19 07:15N 30°08' W 090°56'5 6.4
2014-Jul-19 06:32N 30°08' W 091°02'6 6.3
2014-Jul-19 05:33N 30°12' W 091°06'16 0.4
2014-Jul-17 14:04N 30°03' W 090°50'2 3.1
2014-Jul-17 13:22N 30°01' W 090°50'19 5.7
2014-Jul-17 10:04N 30°02' W 090°28'19 5.1
2014-Jul-17 06:27N 29°56' W 090°08'  
2014-Jul-13 14:24N 27°36' W 082°60'6 6.9
2014-Jul-13 13:33N 27°36' W 082°53'9 8.9
2014-Jul-13 12:33N 27°36' W 082°43'8 8.3
2014-Jul-13 11:33N 27°42' W 082°37'8 8.3
2014-Jul-13 10:33N 27°50' W 082°34'3 3.2
2014-Jul-13 09:33N 27°53' W 082°32'0 0.0
2014-Jul-13 08:33N 27°53' W 082°32'0 0.0
2014-Jul-13 07:33N 27°53' W 082°32'0 0.0
2014-Jul-13 06:33N 27°53' W 082°32'0 0.0
2014-Jul-13 05:33N 27°53' W 082°32'0 0.0
2014-Jul-13 04:33N 27°53' W 082°32'0 0.0
2014-Jul-13 03:33N 27°53' W 082°32'0 0.0
2014-Jul-13 02:33N 27°53' W 082°32'0 0.0
2014-Jul-13 01:33N 27°53' W 082°32'0 0.0
2014-Jul-13 00:33N 27°53' W 082°32'0 0.0
2014-Jul-12 23:33N 27°53' W 082°32'0 0.0
2014-Jul-12 22:33N 27°53' W 082°32'0 0.0
2014-Jul-12 21:33N 27°53' W 082°32'0 0.0
2014-Jul-12 20:33N 27°53' W 082°32'0 0.0
2014-Jul-12 19:33N 27°53' W 082°32'0 0.0
2014-Jul-12 18:33N 27°53' W 082°32'0 0.0
2014-Jul-12 17:32N 27°53' W 082°32'0 0.0
2014-Jul-12 16:33N 27°53' W 082°32'0 0.0
2014-Jul-12 15:33N 27°53' W 082°32'0 0.0
2014-Jul-12 14:33N 27°53' W 082°32'0 0.0
2014-Jul-12 13:33N 27°53' W 082°32'0 0.0
2014-Jul-12 12:33N 27°53' W 082°32'0 0.0
2014-Jul-12 11:33N 27°53' W 082°32'6 6.0
2014-Jul-12 10:33N 27°47' W 082°33'7 7.2
2014-Jul-12 09:33N 27°51' W 082°27'3 3.5
2014-Jul-12 08:33N 27°54' W 082°25'0 0.0
2014-Jul-12 07:33N 27°54' W 082°25'0 0.0
2014-Jul-12 06:33N 27°54' W 082°25'0 0.0
2014-Jul-12 05:33N 27°54' W 082°25'0 0.0
2014-Jul-12 04:33N 27°54' W 082°25'0 0.0
2014-Jul-12 03:33N 27°54' W 082°25'0 0.0
2014-Jul-12 02:33N 27°54' W 082°25'0 0.0
2014-Jul-12 01:33N 27°54' W 082°25'0 0.0
2014-Jul-12 00:33N 27°54' W 082°25'0 0.0
2014-Jul-11 23:33N 27°54' W 082°25'0 0.0
2014-Jul-11 22:33N 27°54' W 082°25'0 0.0
2014-Jul-11 21:33N 27°54' W 082°25'0 0.0
2014-Jul-11 20:33N 27°54' W 082°25'0 0.0
2014-Jul-11 19:33N 27°54' W 082°25'0 0.0
2014-Jul-11 18:33N 27°54' W 082°25'0 0.0
2014-Jul-11 17:33N 27°54' W 082°25'0 0.0
2014-Jul-11 16:33N 27°54' W 082°25'0 0.0
2014-Jul-11 15:33N 27°54' W 082°25'0 0.0
2014-Jul-11 14:33N 27°54' W 082°25'0 0.0
2014-Jul-11 13:33N 27°54' W 082°25'0 0.0
2014-Jul-11 12:33N 27°54' W 082°25'0 0.0
2014-Jul-11 11:33N 27°54' W 082°25'0 0.0
2014-Jul-11 10:33N 27°54' W 082°25'0 0.0
2014-Jul-11 09:34N 27°54' W 082°25'0 0.0
2014-Jul-11 08:33N 27°54' W 082°25'0 0.0
2014-Jul-11 07:33N 27°54' W 082°25'0 0.0
2014-Jul-11 06:34N 27°54' W 082°25'0 0.0
2014-Jul-11 05:33N 27°54' W 082°25'0 0.0
2014-Jul-11 04:34N 27°54' W 082°25'0 0.0
2014-Jul-11 03:33N 27°54' W 082°25'0 0.0
2014-Jul-11 02:34N 27°54' W 082°25'0 0.0
2014-Jul-11 01:33N 27°54' W 082°25'0 0.0
2014-Jul-11 00:33N 27°54' W 082°25'0 0.0
2014-Jul-10 23:33N 27°54' W 082°25'1 0.9
2014-Jul-10 22:33N 27°54' W 082°26'6 6.5
2014-Jul-10 21:33N 27°48' W 082°28'6 6.2
2014-Jul-10 20:33N 27°43' W 082°32'6 6.2
2014-Jul-10 19:33N 27°39' W 082°37'6 5.9
2014-Jul-10 18:33N 27°36' W 082°43'7 6.5
2014-Jul-10 17:33N 27°36' W 082°51'8 7.6
2014-Jul-10 16:31N 27°35' W 082°59'  
Track history (hours):
 
Tides and Currents Weather Stations Pressure Air Temp Water Temp Dewpoint Dewpoint Depression Visibility Wind Speed Wind Dir Waves Ship Positions

RoSS Sea

More information available from US FCC via Universal Licensing System and Coast Guard Vessel Documentation Center.

Last reported at 2014-Jul-19 07:15 UTC. Time now 2014-Jul-24 15:30 UTC.
Position N 30°08' W 090°56'.

Length 30 m; draft 5 m.

Type: Tow > 200 m length. MMSI: 367334360.

Date/timePositionNaut miles runAvg speedWind from/ knotsBaromVisibWave heightAir tempDewpointWater temp
2014-Jul-19 07:15N 30°08' W 090°56'5 6.4
2014-Jul-19 06:32N 30°08' W 091°02'6 6.3
2014-Jul-19 05:33N 30°12' W 091°06'16 0.4
2014-Jul-17 14:04N 30°03' W 090°50'2 3.1
2014-Jul-17 13:22N 30°01' W 090°50'19 5.7
2014-Jul-17 10:04N 30°02' W 090°28'19 5.1
2014-Jul-17 06:27N 29°56' W 090°08'  
2014-Jul-13 14:24N 27°36' W 082°60'6 6.9
2014-Jul-13 13:33N 27°36' W 082°53'9 8.9
2014-Jul-13 12:33N 27°36' W 082°43'8 8.3
2014-Jul-13 11:33N 27°42' W 082°37'8 8.3
2014-Jul-13 10:33N 27°50' W 082°34'3 3.2
2014-Jul-13 09:33N 27°53' W 082°32'0 0.0
2014-Jul-13 08:33N 27°53' W 082°32'0 0.0
2014-Jul-13 07:33N 27°53' W 082°32'0 0.0
2014-Jul-13 06:33N 27°53' W 082°32'0 0.0
2014-Jul-13 05:33N 27°53' W 082°32'0 0.0
2014-Jul-13 04:33N 27°53' W 082°32'0 0.0
2014-Jul-13 03:33N 27°53' W 082°32'0 0.0
2014-Jul-13 02:33N 27°53' W 082°32'0 0.0
2014-Jul-13 01:33N 27°53' W 082°32'0 0.0
2014-Jul-13 00:33N 27°53' W 082°32'0 0.0
2014-Jul-12 23:33N 27°53' W 082°32'0 0.0
2014-Jul-12 22:33N 27°53' W 082°32'0 0.0
2014-Jul-12 21:33N 27°53' W 082°32'0 0.0
2014-Jul-12 20:33N 27°53' W 082°32'0 0.0
2014-Jul-12 19:33N 27°53' W 082°32'0 0.0
2014-Jul-12 18:33N 27°53' W 082°32'0 0.0
2014-Jul-12 17:32N 27°53' W 082°32'0 0.0
2014-Jul-12 16:33N 27°53' W 082°32'0 0.0
2014-Jul-12 15:33N 27°53' W 082°32'0 0.0
2014-Jul-12 14:33N 27°53' W 082°32'0 0.0
2014-Jul-12 13:33N 27°53' W 082°32'0 0.0
2014-Jul-12 12:33N 27°53' W 082°32'0 0.0
2014-Jul-12 11:33N 27°53' W 082°32'6 6.0
2014-Jul-12 10:33N 27°47' W 082°33'7 7.2
2014-Jul-12 09:33N 27°51' W 082°27'3 3.5
2014-Jul-12 08:33N 27°54' W 082°25'0 0.0
2014-Jul-12 07:33N 27°54' W 082°25'0 0.0
2014-Jul-12 06:33N 27°54' W 082°25'0 0.0
2014-Jul-12 05:33N 27°54' W 082°25'0 0.0
2014-Jul-12 04:33N 27°54' W 082°25'0 0.0
2014-Jul-12 03:33N 27°54' W 082°25'0 0.0
2014-Jul-12 02:33N 27°54' W 082°25'0 0.0
2014-Jul-12 01:33N 27°54' W 082°25'0 0.0
2014-Jul-12 00:33N 27°54' W 082°25'0 0.0
2014-Jul-11 23:33N 27°54' W 082°25'0 0.0
2014-Jul-11 22:33N 27°54' W 082°25'0 0.0
2014-Jul-11 21:33N 27°54' W 082°25'0 0.0
2014-Jul-11 20:33N 27°54' W 082°25'0 0.0
2014-Jul-11 19:33N 27°54' W 082°25'0 0.0
2014-Jul-11 18:33N 27°54' W 082°25'0 0.0
2014-Jul-11 17:33N 27°54' W 082°25'0 0.0
2014-Jul-11 16:33N 27°54' W 082°25'0 0.0
2014-Jul-11 15:33N 27°54' W 082°25'0 0.0
2014-Jul-11 14:33N 27°54' W 082°25'0 0.0
2014-Jul-11 13:33N 27°54' W 082°25'0 0.0
2014-Jul-11 12:33N 27°54' W 082°25'0 0.0
2014-Jul-11 11:33N 27°54' W 082°25'0 0.0
2014-Jul-11 10:33N 27°54' W 082°25'0 0.0
2014-Jul-11 09:34N 27°54' W 082°25'0 0.0
2014-Jul-11 08:33N 27°54' W 082°25'0 0.0
2014-Jul-11 07:33N 27°54' W 082°25'0 0.0
2014-Jul-11 06:34N 27°54' W 082°25'0 0.0
2014-Jul-11 05:33N 27°54' W 082°25'0 0.0
2014-Jul-11 04:34N 27°54' W 082°25'0 0.0
2014-Jul-11 03:33N 27°54' W 082°25'0 0.0
2014-Jul-11 02:34N 27°54' W 082°25'0 0.0
2014-Jul-11 01:33N 27°54' W 082°25'0 0.0
2014-Jul-11 00:33N 27°54' W 082°25'0 0.0
2014-Jul-10 23:33N 27°54' W 082°25'1 0.9
2014-Jul-10 22:33N 27°54' W 082°26'6 6.5
2014-Jul-10 21:33N 27°48' W 082°28'6 6.2
2014-Jul-10 20:33N 27°43' W 082°32'6 6.2
2014-Jul-10 19:33N 27°39' W 082°37'6 5.9
2014-Jul-10 18:33N 27°36' W 082°43'7 6.5
2014-Jul-10 17:33N 27°36' W 082°51'8 7.6
2014-Jul-10 16:31N 27°35' W 082°59'  

Dump ship's entire track history